sensor_id;sensor_type;location;lat;lon;timestamp;P1;durP1;ratioP1;P2;durP2;ratioP2
68792;SDS011;55778;54.346;10.210;2022-07-05T00:00:11;3.95;;;2.00;;
68792;SDS011;55778;54.346;10.210;2022-07-05T00:02:36;5.63;;;1.80;;
68792;SDS011;55778;54.346;10.210;2022-07-05T00:05:02;7.35;;;2.53;;
68792;SDS011;55778;54.346;10.210;2022-07-05T00:07:28;6.43;;;2.20;;
68792;SDS011;55778;54.346;10.210;2022-07-05T00:09:54;6.07;;;2.25;;
68792;SDS011;55778;54.346;10.210;2022-07-05T00:12:26;4.43;;;2.35;;
68792;SDS011;55778;54.346;10.210;2022-07-05T00:14:55;5.85;;;1.98;;
68792;SDS011;55778;54.346;10.210;2022-07-05T00:17:20;4.50;;;2.00;;
68792;SDS011;55778;54.346;10.210;2022-07-05T00:19:47;5.15;;;2.25;;
68792;SDS011;55778;54.346;10.210;2022-07-05T00:22:13;6.05;;;2.75;;
68792;SDS011;55778;54.346;10.210;2022-07-05T00:24:38;3.53;;;1.90;;
68792;SDS011;55778;54.346;10.210;2022-07-05T00:27:04;4.97;;;2.08;;
68792;SDS011;55778;54.346;10.210;2022-07-05T00:29:29;4.68;;;2.00;;
68792;SDS011;55778;54.346;10.210;2022-07-05T00:31:55;4.30;;;1.90;;
68792;SDS011;55778;54.346;10.210;2022-07-05T00:34:20;4.65;;;1.90;;
68792;SDS011;55778;54.346;10.210;2022-07-05T00:36:45;4.55;;;2.20;;
68792;SDS011;55778;54.346;10.210;2022-07-05T00:39:11;5.13;;;2.22;;
68792;SDS011;55778;54.346;10.210;2022-07-05T00:41:37;7.25;;;2.20;;
68792;SDS011;55778;54.346;10.210;2022-07-05T00:44:04;5.47;;;2.10;;
68792;SDS011;55778;54.346;10.210;2022-07-05T00:46:31;7.28;;;2.47;;
68792;SDS011;55778;54.346;10.210;2022-07-05T00:48:57;5.25;;;2.20;;
68792;SDS011;55778;54.346;10.210;2022-07-05T00:51:24;4.03;;;2.00;;
68792;SDS011;55778;54.346;10.210;2022-07-05T00:53:51;3.72;;;2.13;;
68792;SDS011;55778;54.346;10.210;2022-07-05T00:56:17;4.20;;;2.33;;
68792;SDS011;55778;54.346;10.210;2022-07-05T00:58:44;6.78;;;2.03;;
68792;SDS011;55778;54.346;10.210;2022-07-05T01:01:10;3.13;;;2.15;;
68792;SDS011;55778;54.346;10.210;2022-07-05T01:03:37;6.35;;;2.60;;
68792;SDS011;55778;54.346;10.210;2022-07-05T01:06:05;6.68;;;2.70;;
68792;SDS011;55778;54.346;10.210;2022-07-05T01:08:33;7.32;;;2.60;;
68792;SDS011;55778;54.346;10.210;2022-07-05T01:11:00;6.18;;;2.53;;
68792;SDS011;55778;54.346;10.210;2022-07-05T01:13:26;8.82;;;2.53;;
68792;SDS011;55778;54.346;10.210;2022-07-05T01:15:52;4.97;;;2.50;;
68792;SDS011;55778;54.346;10.210;2022-07-05T01:18:19;6.10;;;2.47;;
68792;SDS011;55778;54.346;10.210;2022-07-05T01:20:47;7.35;;;2.30;;
68792;SDS011;55778;54.346;10.210;2022-07-05T01:23:16;6.70;;;2.53;;
68792;SDS011;55778;54.346;10.210;2022-07-05T01:25:42;3.92;;;2.30;;
68792;SDS011;55778;54.346;10.210;2022-07-05T01:28:07;5.45;;;2.80;;
68792;SDS011;55778;54.346;10.210;2022-07-05T01:30:33;5.00;;;2.55;;
68792;SDS011;55778;54.346;10.210;2022-07-05T01:33:00;4.97;;;2.38;;
68792;SDS011;55778;54.346;10.210;2022-07-05T01:35:26;5.30;;;2.88;;
68792;SDS011;55778;54.346;10.210;2022-07-05T01:37:51;4.38;;;2.58;;
68792;SDS011;55778;54.346;10.210;2022-07-05T01:40:18;4.78;;;2.60;;
68792;SDS011;55778;54.346;10.210;2022-07-05T01:42:44;5.28;;;2.83;;
68792;SDS011;55778;54.346;10.210;2022-07-05T01:45:10;5.78;;;2.80;;
68792;SDS011;55778;54.346;10.210;2022-07-05T01:47:36;5.53;;;2.65;;
68792;SDS011;55778;54.346;10.210;2022-07-05T01:50:04;5.50;;;2.65;;
68792;SDS011;55778;54.346;10.210;2022-07-05T01:52:31;9.27;;;3.40;;
68792;SDS011;55778;54.346;10.210;2022-07-05T01:54:58;7.20;;;2.80;;
68792;SDS011;55778;54.346;10.210;2022-07-05T01:57:26;3.53;;;2.50;;
68792;SDS011;55778;54.346;10.210;2022-07-05T01:59:51;7.32;;;2.97;;
68792;SDS011;55778;54.346;10.210;2022-07-05T02:02:17;10.60;;;4.30;;
68792;SDS011;55778;54.346;10.210;2022-07-05T02:04:42;7.25;;;4.13;;
68792;SDS011;55778;54.346;10.210;2022-07-05T02:07:08;7.50;;;3.03;;
68792;SDS011;55778;54.346;10.210;2022-07-05T02:09:34;6.65;;;3.33;;
68792;SDS011;55778;54.346;10.210;2022-07-05T02:12:01;7.05;;;2.95;;
68792;SDS011;55778;54.346;10.210;2022-07-05T02:14:27;8.52;;;2.72;;
68792;SDS011;55778;54.346;10.210;2022-07-05T02:16:55;8.10;;;3.10;;
68792;SDS011;55778;54.346;10.210;2022-07-05T02:19:20;5.13;;;2.78;;
68792;SDS011;55778;54.346;10.210;2022-07-05T02:21:45;4.82;;;2.80;;
68792;SDS011;55778;54.346;10.210;2022-07-05T02:24:11;4.78;;;2.78;;
68792;SDS011;55778;54.346;10.210;2022-07-05T02:26:37;4.93;;;2.83;;
68792;SDS011;55778;54.346;10.210;2022-07-05T02:29:03;5.43;;;2.80;;
68792;SDS011;55778;54.346;10.210;2022-07-05T02:31:29;6.35;;;2.88;;
68792;SDS011;55778;54.346;10.210;2022-07-05T02:33:55;5.47;;;2.65;;
68792;SDS011;55778;54.346;10.210;2022-07-05T02:36:20;4.65;;;2.75;;
68792;SDS011;55778;54.346;10.210;2022-07-05T02:38:46;8.15;;;3.97;;
68792;SDS011;55778;54.346;10.210;2022-07-05T02:41:12;5.32;;;3.20;;
68792;SDS011;55778;54.346;10.210;2022-07-05T02:43:38;5.60;;;3.00;;
68792;SDS011;55778;54.346;10.210;2022-07-05T02:46:04;5.55;;;2.78;;
68792;SDS011;55778;54.346;10.210;2022-07-05T02:48:31;7.35;;;2.67;;
68792;SDS011;55778;54.346;10.210;2022-07-05T02:50:57;8.75;;;5.00;;
68792;SDS011;55778;54.346;10.210;2022-07-05T02:53:22;7.75;;;3.92;;
68792;SDS011;55778;54.346;10.210;2022-07-05T02:55:48;30.75;;;15.95;;
68792;SDS011;55778;54.346;10.210;2022-07-05T02:58:13;5.07;;;3.45;;
68792;SDS011;55778;54.346;10.210;2022-07-05T03:00:38;11.30;;;3.08;;
68792;SDS011;55778;54.346;10.210;2022-07-05T03:03:04;5.43;;;2.63;;
68792;SDS011;55778;54.346;10.210;2022-07-05T03:05:29;6.60;;;2.75;;
68792;SDS011;55778;54.346;10.210;2022-07-05T03:07:54;6.00;;;2.85;;
68792;SDS011;55778;54.346;10.210;2022-07-05T03:10:20;3.90;;;2.70;;
68792;SDS011;55778;54.346;10.210;2022-07-05T03:12:45;4.78;;;2.70;;
68792;SDS011;55778;54.346;10.210;2022-07-05T03:15:10;7.85;;;3.42;;
68792;SDS011;55778;54.346;10.210;2022-07-05T03:17:36;5.95;;;2.80;;
68792;SDS011;55778;54.346;10.210;2022-07-05T03:20:02;4.28;;;2.60;;
68792;SDS011;55778;54.346;10.210;2022-07-05T03:22:28;15.00;;;8.25;;
68792;SDS011;55778;54.346;10.210;2022-07-05T03:24:54;8.32;;;2.72;;
68792;SDS011;55778;54.346;10.210;2022-07-05T03:27:19;8.75;;;4.60;;
68792;SDS011;55778;54.346;10.210;2022-07-05T03:29:45;7.80;;;2.70;;
68792;SDS011;55778;54.346;10.210;2022-07-05T03:32:10;4.47;;;2.30;;
68792;SDS011;55778;54.346;10.210;2022-07-05T03:34:35;6.10;;;2.33;;
68792;SDS011;55778;54.346;10.210;2022-07-05T03:37:01;5.43;;;2.40;;
68792;SDS011;55778;54.346;10.210;2022-07-05T03:39:26;6.07;;;2.30;;
68792;SDS011;55778;54.346;10.210;2022-07-05T03:41:51;4.00;;;2.20;;
68792;SDS011;55778;54.346;10.210;2022-07-05T03:44:17;5.72;;;3.30;;
68792;SDS011;55778;54.346;10.210;2022-07-05T03:46:42;6.60;;;2.58;;
68792;SDS011;55778;54.346;10.210;2022-07-05T03:49:08;5.10;;;2.50;;
68792;SDS011;55778;54.346;10.210;2022-07-05T03:51:33;6.95;;;3.42;;
68792;SDS011;55778;54.346;10.210;2022-07-05T03:53:58;6.47;;;2.33;;
68792;SDS011;55778;54.346;10.210;2022-07-05T03:56:24;5.22;;;3.05;;
68792;SDS011;55778;54.346;10.210;2022-07-05T03:58:49;10.73;;;6.50;;
68792;SDS011;55778;54.346;10.210;2022-07-05T04:01:15;3.47;;;2.08;;
68792;SDS011;55778;54.346;10.210;2022-07-05T04:03:41;5.80;;;2.10;;
68792;SDS011;55778;54.346;10.210;2022-07-05T04:06:07;4.10;;;2.55;;
68792;SDS011;55778;54.346;10.210;2022-07-05T04:08:33;4.80;;;2.28;;
68792;SDS011;55778;54.346;10.210;2022-07-05T04:10:59;5.75;;;2.15;;
68792;SDS011;55778;54.346;10.210;2022-07-05T04:13:24;4.57;;;2.30;;
68792;SDS011;55778;54.346;10.210;2022-07-05T04:15:49;6.72;;;2.20;;
68792;SDS011;55778;54.346;10.210;2022-07-05T04:18:15;3.47;;;2.22;;
68792;SDS011;55778;54.346;10.210;2022-07-05T04:20:40;6.28;;;1.90;;
68792;SDS011;55778;54.346;10.210;2022-07-05T04:23:06;7.10;;;2.00;;
68792;SDS011;55778;54.346;10.210;2022-07-05T04:25:31;3.53;;;2.20;;
68792;SDS011;55778;54.346;10.210;2022-07-05T04:27:56;5.38;;;2.10;;
68792;SDS011;55778;54.346;10.210;2022-07-05T04:30:23;4.85;;;2.10;;
68792;SDS011;55778;54.346;10.210;2022-07-05T04:32:50;5.53;;;1.90;;
68792;SDS011;55778;54.346;10.210;2022-07-05T04:35:16;3.65;;;2.10;;
68792;SDS011;55778;54.346;10.210;2022-07-05T04:37:42;6.38;;;2.00;;
68792;SDS011;55778;54.346;10.210;2022-07-05T04:40:08;4.88;;;2.38;;
68792;SDS011;55778;54.346;10.210;2022-07-05T04:42:35;5.43;;;2.15;;
68792;SDS011;55778;54.346;10.210;2022-07-05T04:45:01;3.72;;;1.92;;
68792;SDS011;55778;54.346;10.210;2022-07-05T04:47:27;4.50;;;2.03;;
68792;SDS011;55778;54.346;10.210;2022-07-05T04:49:53;5.22;;;2.08;;
68792;SDS011;55778;54.346;10.210;2022-07-05T04:52:20;4.03;;;2.00;;
68792;SDS011;55778;54.346;10.210;2022-07-05T04:54:45;6.20;;;1.70;;
68792;SDS011;55778;54.346;10.210;2022-07-05T04:57:11;4.45;;;1.98;;
68792;SDS011;55778;54.346;10.210;2022-07-05T04:59:37;6.40;;;2.08;;
68792;SDS011;55778;54.346;10.210;2022-07-05T05:02:02;3.67;;;2.10;;
68792;SDS011;55778;54.346;10.210;2022-07-05T05:04:28;5.65;;;1.90;;
68792;SDS011;55778;54.346;10.210;2022-07-05T05:06:53;3.42;;;1.70;;
68792;SDS011;55778;54.346;10.210;2022-07-05T05:09:19;4.30;;;1.73;;
68792;SDS011;55778;54.346;10.210;2022-07-05T05:11:45;6.57;;;2.03;;
68792;SDS011;55778;54.346;10.210;2022-07-05T05:14:11;6.63;;;1.83;;
68792;SDS011;55778;54.346;10.210;2022-07-05T05:16:36;4.93;;;1.60;;
68792;SDS011;55778;54.346;10.210;2022-07-05T05:19:02;3.60;;;1.58;;
68792;SDS011;55778;54.346;10.210;2022-07-05T05:21:27;5.35;;;1.60;;
68792;SDS011;55778;54.346;10.210;2022-07-05T05:23:52;2.78;;;1.48;;
68792;SDS011;55778;54.346;10.210;2022-07-05T05:26:18;5.10;;;1.40;;
68792;SDS011;55778;54.346;10.210;2022-07-05T05:28:43;8.07;;;1.55;;
68792;SDS011;55778;54.346;10.210;2022-07-05T05:31:09;3.72;;;1.50;;
68792;SDS011;55778;54.346;10.210;2022-07-05T05:33:34;3.75;;;1.40;;
68792;SDS011;55778;54.346;10.210;2022-07-05T05:36:00;4.03;;;1.20;;
68792;SDS011;55778;54.346;10.210;2022-07-05T05:38:26;4.13;;;1.40;;
68792;SDS011;55778;54.346;10.210;2022-07-05T05:40:51;5.40;;;1.30;;
68792;SDS011;55778;54.346;10.210;2022-07-05T05:43:17;3.78;;;1.30;;
68792;SDS011;55778;54.346;10.210;2022-07-05T05:45:42;3.80;;;1.40;;
68792;SDS011;55778;54.346;10.210;2022-07-05T05:48:07;5.53;;;1.27;;
68792;SDS011;55778;54.346;10.210;2022-07-05T05:50:34;3.42;;;1.25;;
68792;SDS011;55778;54.346;10.210;2022-07-05T05:53:01;5.43;;;1.45;;
68792;SDS011;55778;54.346;10.210;2022-07-05T05:55:27;7.18;;;1.48;;
68792;SDS011;55778;54.346;10.210;2022-07-05T05:57:54;7.55;;;1.20;;
68792;SDS011;55778;54.346;10.210;2022-07-05T06:00:20;4.28;;;1.35;;
68792;SDS011;55778;54.346;10.210;2022-07-05T06:02:47;4.95;;;1.20;;
68792;SDS011;55778;54.346;10.210;2022-07-05T06:05:14;5.93;;;1.75;;
68792;SDS011;55778;54.346;10.210;2022-07-05T06:10:16;4.72;;;1.10;;
68792;SDS011;55778;54.346;10.210;2022-07-05T06:12:47;4.63;;;1.30;;
68792;SDS011;55778;54.346;10.210;2022-07-05T06:15:13;4.82;;;1.20;;
68792;SDS011;55778;54.346;10.210;2022-07-05T06:17:39;6.50;;;1.38;;
68792;SDS011;55778;54.346;10.210;2022-07-05T06:20:08;3.80;;;1.52;;
68792;SDS011;55778;54.346;10.210;2022-07-05T06:22:44;5.72;;;1.20;;
68792;SDS011;55778;54.346;10.210;2022-07-05T06:25:11;5.50;;;1.10;;
68792;SDS011;55778;54.346;10.210;2022-07-05T06:27:43;3.60;;;1.20;;
68792;SDS011;55778;54.346;10.210;2022-07-05T06:30:13;3.95;;;1.00;;
68792;SDS011;55778;54.346;10.210;2022-07-05T06:32:41;4.05;;;1.00;;
68792;SDS011;55778;54.346;10.210;2022-07-05T06:35:08;3.47;;;1.00;;
68792;SDS011;55778;54.346;10.210;2022-07-05T06:38:08;3.28;;;1.00;;
68792;SDS011;55778;54.346;10.210;2022-07-05T06:40:28;3.03;;;0.90;;
68792;SDS011;55778;54.346;10.210;2022-07-05T06:42:55;2.35;;;0.82;;
68792;SDS011;55778;54.346;10.210;2022-07-05T06:45:22;2.38;;;0.80;;
68792;SDS011;55778;54.346;10.210;2022-07-05T06:50:19;5.53;;;1.10;;
68792;SDS011;55778;54.346;10.210;2022-07-05T06:52:46;2.20;;;0.80;;
68792;SDS011;55778;54.346;10.210;2022-07-05T06:55:11;3.35;;;1.00;;
68792;SDS011;55778;54.346;10.210;2022-07-05T06:57:36;5.03;;;0.90;;
68792;SDS011;55778;54.346;10.210;2022-07-05T07:00:02;3.35;;;1.10;;
68792;SDS011;55778;54.346;10.210;2022-07-05T07:02:28;4.78;;;1.20;;
68792;SDS011;55778;54.346;10.210;2022-07-05T07:04:54;4.63;;;1.02;;
68792;SDS011;55778;54.346;10.210;2022-07-05T07:07:19;3.70;;;0.90;;
68792;SDS011;55778;54.346;10.210;2022-07-05T07:10:03;5.68;;;1.52;;
68792;SDS011;55778;54.346;10.210;2022-07-05T07:12:29;2.33;;;1.40;;
68792;SDS011;55778;54.346;10.210;2022-07-05T07:14:55;4.53;;;2.25;;
68792;SDS011;55778;54.346;10.210;2022-07-05T07:17:21;5.35;;;2.10;;
68792;SDS011;55778;54.346;10.210;2022-07-05T07:19:47;1.92;;;0.98;;
68792;SDS011;55778;54.346;10.210;2022-07-05T07:22:12;1.70;;;0.80;;
68792;SDS011;55778;54.346;10.210;2022-07-05T07:24:38;3.17;;;0.90;;
68792;SDS011;55778;54.346;10.210;2022-07-05T07:27:03;7.10;;;1.15;;
68792;SDS011;55778;54.346;10.210;2022-07-05T07:29:33;4.75;;;0.80;;
68792;SDS011;55778;54.346;10.210;2022-07-05T07:32:00;3.33;;;0.88;;
68792;SDS011;55778;54.346;10.210;2022-07-05T07:34:27;3.17;;;0.70;;
68792;SDS011;55778;54.346;10.210;2022-07-05T07:36:53;7.25;;;1.10;;
68792;SDS011;55778;54.346;10.210;2022-07-05T07:39:19;5.88;;;1.08;;
68792;SDS011;55778;54.346;10.210;2022-07-05T07:41:45;2.88;;;0.82;;
68792;SDS011;55778;54.346;10.210;2022-07-05T07:44:11;3.25;;;0.80;;
68792;SDS011;55778;54.346;10.210;2022-07-05T07:46:37;3.50;;;0.93;;
68792;SDS011;55778;54.346;10.210;2022-07-05T07:49:04;3.22;;;0.88;;
68792;SDS011;55778;54.346;10.210;2022-07-05T07:51:30;3.03;;;0.88;;
68792;SDS011;55778;54.346;10.210;2022-07-05T07:53:55;2.05;;;0.73;;
68792;SDS011;55778;54.346;10.210;2022-07-05T07:56:21;1.63;;;0.60;;
68792;SDS011;55778;54.346;10.210;2022-07-05T07:58:46;1.73;;;0.80;;
68792;SDS011;55778;54.346;10.210;2022-07-05T08:01:12;1.75;;;0.85;;
68792;SDS011;55778;54.346;10.210;2022-07-05T08:03:38;3.35;;;0.80;;
68792;SDS011;55778;54.346;10.210;2022-07-05T08:06:04;2.47;;;1.00;;
68792;SDS011;55778;54.346;10.210;2022-07-05T08:08:30;2.15;;;0.80;;
68792;SDS011;55778;54.346;10.210;2022-07-05T08:10:55;2.78;;;0.82;;
68792;SDS011;55778;54.346;10.210;2022-07-05T08:13:20;3.17;;;0.60;;
68792;SDS011;55778;54.346;10.210;2022-07-05T08:15:46;4.90;;;0.90;;
68792;SDS011;55778;54.346;10.210;2022-07-05T08:18:11;3.72;;;0.73;;
68792;SDS011;55778;54.346;10.210;2022-07-05T08:20:55;3.90;;;0.75;;
68792;SDS011;55778;54.346;10.210;2022-07-05T08:23:39;2.10;;;0.70;;
68792;SDS011;55778;54.346;10.210;2022-07-05T08:26:06;2.47;;;0.80;;
68792;SDS011;55778;54.346;10.210;2022-07-05T08:28:31;3.08;;;0.65;;
68792;SDS011;55778;54.346;10.210;2022-07-05T08:30:56;3.63;;;0.75;;
68792;SDS011;55778;54.346;10.210;2022-07-05T08:33:22;3.17;;;1.10;;
68792;SDS011;55778;54.346;10.210;2022-07-05T08:35:49;2.30;;;0.80;;
68792;SDS011;55778;54.346;10.210;2022-07-05T08:38:14;1.95;;;0.60;;
68792;SDS011;55778;54.346;10.210;2022-07-05T08:40:40;2.13;;;0.57;;
68792;SDS011;55778;54.346;10.210;2022-07-05T08:43:10;1.75;;;0.50;;
68792;SDS011;55778;54.346;10.210;2022-07-05T08:45:37;3.15;;;0.98;;
68792;SDS011;55778;54.346;10.210;2022-07-05T08:48:03;2.65;;;0.80;;
68792;SDS011;55778;54.346;10.210;2022-07-05T08:50:30;4.15;;;0.90;;
68792;SDS011;55778;54.346;10.210;2022-07-05T08:52:57;2.28;;;0.70;;
68792;SDS011;55778;54.346;10.210;2022-07-05T08:55:25;2.05;;;0.70;;
68792;SDS011;55778;54.346;10.210;2022-07-05T08:57:51;2.75;;;0.65;;
68792;SDS011;55778;54.346;10.210;2022-07-05T09:00:16;2.13;;;0.60;;
68792;SDS011;55778;54.346;10.210;2022-07-05T09:02:42;1.25;;;0.70;;
68792;SDS011;55778;54.346;10.210;2022-07-05T09:05:09;6.78;;;0.90;;
68792;SDS011;55778;54.346;10.210;2022-07-05T09:07:37;4.18;;;0.93;;
68792;SDS011;55778;54.346;10.210;2022-07-05T09:10:09;1.67;;;0.60;;
68792;SDS011;55778;54.346;10.210;2022-07-05T09:12:37;4.10;;;0.60;;
68792;SDS011;55778;54.346;10.210;2022-07-05T09:15:03;1.42;;;0.52;;
68792;SDS011;55778;54.346;10.210;2022-07-05T09:17:29;1.85;;;0.55;;
68792;SDS011;55778;54.346;10.210;2022-07-05T09:20:12;1.58;;;0.60;;
68792;SDS011;55778;54.346;10.210;2022-07-05T09:27:51;2.50;;;0.80;;
68792;SDS011;55778;54.346;10.210;2022-07-05T09:33:01;1.00;;;0.70;;
68792;SDS011;55778;54.346;10.210;2022-07-05T09:35:38;4.70;;;0.93;;
68792;SDS011;55778;54.346;10.210;2022-07-05T09:38:05;4.05;;;0.60;;
68792;SDS011;55778;54.346;10.210;2022-07-05T09:40:48;1.98;;;0.60;;
68792;SDS011;55778;54.346;10.210;2022-07-05T09:43:16;2.20;;;0.68;;
68792;SDS011;55778;54.346;10.210;2022-07-05T09:48:17;3.42;;;0.60;;
68792;SDS011;55778;54.346;10.210;2022-07-05T09:50:43;1.95;;;0.57;;
68792;SDS011;55778;54.346;10.210;2022-07-05T09:53:08;1.88;;;0.60;;
68792;SDS011;55778;54.346;10.210;2022-07-05T09:55:36;3.78;;;0.70;;
68792;SDS011;55778;54.346;10.210;2022-07-05T09:58:02;1.55;;;0.60;;
68792;SDS011;55778;54.346;10.210;2022-07-05T10:00:27;2.67;;;0.52;;
68792;SDS011;55778;54.346;10.210;2022-07-05T10:02:54;2.80;;;0.52;;
68792;SDS011;55778;54.346;10.210;2022-07-05T10:05:26;2.10;;;0.55;;
68792;SDS011;55778;54.346;10.210;2022-07-05T10:07:55;2.92;;;0.57;;
68792;SDS011;55778;54.346;10.210;2022-07-05T10:10:22;1.63;;;0.50;;
68792;SDS011;55778;54.346;10.210;2022-07-05T10:12:53;1.40;;;0.52;;
68792;SDS011;55778;54.346;10.210;2022-07-05T10:15:21;0.93;;;0.52;;
68792;SDS011;55778;54.346;10.210;2022-07-05T10:17:53;2.22;;;0.90;;
68792;SDS011;55778;54.346;10.210;2022-07-05T10:23:02;2.80;;;0.65;;
68792;SDS011;55778;54.346;10.210;2022-07-05T10:25:29;1.25;;;0.52;;
68792;SDS011;55778;54.346;10.210;2022-07-05T10:27:55;3.33;;;0.60;;
68792;SDS011;55778;54.346;10.210;2022-07-05T10:30:23;5.60;;;0.70;;
68792;SDS011;55778;54.346;10.210;2022-07-05T10:32:50;2.35;;;0.75;;
68792;SDS011;55778;54.346;10.210;2022-07-05T10:35:17;1.98;;;0.60;;
68792;SDS011;55778;54.346;10.210;2022-07-05T10:37:43;3.65;;;0.50;;
68792;SDS011;55778;54.346;10.210;2022-07-05T10:40:10;3.33;;;0.88;;
68792;SDS011;55778;54.346;10.210;2022-07-05T10:42:51;1.30;;;0.50;;
68792;SDS011;55778;54.346;10.210;2022-07-05T10:51:17;2.53;;;0.60;;
68792;SDS011;55778;54.346;10.210;2022-07-05T10:53:24;0.45;;;0.38;;
68792;SDS011;55778;54.346;10.210;2022-07-05T11:03:52;2.53;;;0.60;;
68792;SDS011;55778;54.346;10.210;2022-07-05T11:11:32;1.58;;;0.60;;
68792;SDS011;55778;54.346;10.210;2022-07-05T11:14:03;2.58;;;0.50;;
68792;SDS011;55778;54.346;10.210;2022-07-05T11:16:30;4.15;;;0.60;;
68792;SDS011;55778;54.346;10.210;2022-07-05T11:19:07;1.63;;;0.50;;
68792;SDS011;55778;54.346;10.210;2022-07-05T11:21:35;2.92;;;0.57;;
68792;SDS011;55778;54.346;10.210;2022-07-05T11:26:47;3.00;;;0.50;;
68792;SDS011;55778;54.346;10.210;2022-07-05T11:32:12;3.47;;;0.70;;
68792;SDS011;55778;54.346;10.210;2022-07-05T11:34:40;2.67;;;0.60;;
68792;SDS011;55778;54.346;10.210;2022-07-05T11:40:25;3.17;;;0.73;;
68792;SDS011;55778;54.346;10.210;2022-07-05T11:42:49;2.50;;;0.68;;
68792;SDS011;55778;54.346;10.210;2022-07-05T11:45:16;3.50;;;0.70;;
68792;SDS011;55778;54.346;10.210;2022-07-05T11:47:42;2.35;;;0.70;;
68792;SDS011;55778;54.346;10.210;2022-07-05T11:50:08;1.73;;;0.68;;
68792;SDS011;55778;54.346;10.210;2022-07-05T11:52:34;1.83;;;0.57;;
68792;SDS011;55778;54.346;10.210;2022-07-05T11:55:05;2.47;;;0.60;;
68792;SDS011;55778;54.346;10.210;2022-07-05T11:57:32;0.88;;;0.70;;
68792;SDS011;55778;54.346;10.210;2022-07-05T11:59:58;2.75;;;0.70;;
68792;SDS011;55778;54.346;10.210;2022-07-05T12:02:24;2.97;;;0.90;;
68792;SDS011;55778;54.346;10.210;2022-07-05T12:04:50;1.38;;;0.60;;
68792;SDS011;55778;54.346;10.210;2022-07-05T12:07:24;2.42;;;0.50;;
68792;SDS011;55778;54.346;10.210;2022-07-05T12:09:52;4.00;;;0.75;;
68792;SDS011;55778;54.346;10.210;2022-07-05T12:12:37;1.38;;;0.60;;
68792;SDS011;55778;54.346;10.210;2022-07-05T12:15:11;2.75;;;0.77;;
68792;SDS011;55778;54.346;10.210;2022-07-05T12:17:39;1.17;;;0.50;;
68792;SDS011;55778;54.346;10.210;2022-07-05T12:20:07;2.00;;;0.45;;
68792;SDS011;55778;54.346;10.210;2022-07-05T12:22:35;1.65;;;0.50;;
68792;SDS011;55778;54.346;10.210;2022-07-05T12:25:02;1.48;;;0.52;;
68792;SDS011;55778;54.346;10.210;2022-07-05T12:27:29;2.97;;;0.60;;
68792;SDS011;55778;54.346;10.210;2022-07-05T12:29:57;2.72;;;0.65;;
68792;SDS011;55778;54.346;10.210;2022-07-05T12:32:22;1.50;;;0.40;;
68792;SDS011;55778;54.346;10.210;2022-07-05T12:34:48;2.00;;;0.70;;
68792;SDS011;55778;54.346;10.210;2022-07-05T12:37:20;4.65;;;0.75;;
68792;SDS011;55778;54.346;10.210;2022-07-05T12:39:47;4.15;;;0.70;;
68792;SDS011;55778;54.346;10.210;2022-07-05T12:42:29;0.70;;;0.57;;
68792;SDS011;55778;54.346;10.210;2022-07-05T12:45:08;2.60;;;0.60;;
68792;SDS011;55778;54.346;10.210;2022-07-05T12:47:48;1.02;;;0.50;;
68792;SDS011;55778;54.346;10.210;2022-07-05T12:50:15;4.00;;;0.82;;
68792;SDS011;55778;54.346;10.210;2022-07-05T12:53:00;4.25;;;0.80;;
68792;SDS011;55778;54.346;10.210;2022-07-05T12:55:48;1.70;;;0.50;;
68792;SDS011;55778;54.346;10.210;2022-07-05T12:58:33;2.08;;;0.43;;
68792;SDS011;55778;54.346;10.210;2022-07-05T13:00:58;1.08;;;0.60;;
68792;SDS011;55778;54.346;10.210;2022-07-05T13:03:24;2.05;;;0.70;;
68792;SDS011;55778;54.346;10.210;2022-07-05T13:06:02;2.42;;;0.60;;
68792;SDS011;55778;54.346;10.210;2022-07-05T13:08:28;0.70;;;0.40;;
68792;SDS011;55778;54.346;10.210;2022-07-05T13:10:56;1.05;;;0.60;;
68792;SDS011;55778;54.346;10.210;2022-07-05T13:13:21;2.03;;;0.50;;
68792;SDS011;55778;54.346;10.210;2022-07-05T13:15:47;0.63;;;0.60;;
68792;SDS011;55778;54.346;10.210;2022-07-05T13:18:22;1.80;;;0.60;;
68792;SDS011;55778;54.346;10.210;2022-07-05T13:20:49;2.22;;;0.77;;
68792;SDS011;55778;54.346;10.210;2022-07-05T13:23:15;2.08;;;0.90;;
68792;SDS011;55778;54.346;10.210;2022-07-05T13:25:40;1.92;;;0.80;;
68792;SDS011;55778;54.346;10.210;2022-07-05T13:28:05;0.80;;;0.57;;
68792;SDS011;55778;54.346;10.210;2022-07-05T13:30:31;4.28;;;0.80;;
68792;SDS011;55778;54.346;10.210;2022-07-05T13:32:56;3.22;;;0.60;;
68792;SDS011;55778;54.346;10.210;2022-07-05T13:35:21;1.58;;;0.73;;
68792;SDS011;55778;54.346;10.210;2022-07-05T13:37:47;0.68;;;0.50;;
68792;SDS011;55778;54.346;10.210;2022-07-05T13:40:12;0.88;;;0.50;;
68792;SDS011;55778;54.346;10.210;2022-07-05T13:42:38;0.82;;;0.50;;
68792;SDS011;55778;54.346;10.210;2022-07-05T13:45:03;0.73;;;0.50;;
68792;SDS011;55778;54.346;10.210;2022-07-05T13:47:29;1.23;;;0.40;;
68792;SDS011;55778;54.346;10.210;2022-07-05T13:49:54;2.47;;;0.70;;
68792;SDS011;55778;54.346;10.210;2022-07-05T13:52:40;2.95;;;0.63;;
68792;SDS011;55778;54.346;10.210;2022-07-05T13:55:05;3.35;;;0.60;;
68792;SDS011;55778;54.346;10.210;2022-07-05T13:57:31;2.63;;;0.60;;
68792;SDS011;55778;54.346;10.210;2022-07-05T13:59:56;1.90;;;0.50;;
68792;SDS011;55778;54.346;10.210;2022-07-05T14:02:22;1.42;;;0.50;;
68792;SDS011;55778;54.346;10.210;2022-07-05T14:04:47;1.25;;;0.68;;
68792;SDS011;55778;54.346;10.210;2022-07-05T14:07:13;1.23;;;0.60;;
68792;SDS011;55778;54.346;10.210;2022-07-05T14:09:38;2.15;;;0.65;;
68792;SDS011;55778;54.346;10.210;2022-07-05T14:12:04;2.30;;;0.73;;
68792;SDS011;55778;54.346;10.210;2022-07-05T14:14:29;1.83;;;0.70;;
68792;SDS011;55778;54.346;10.210;2022-07-05T14:16:55;2.92;;;0.60;;
68792;SDS011;55778;54.346;10.210;2022-07-05T14:19:20;2.10;;;0.70;;
68792;SDS011;55778;54.346;10.210;2022-07-05T14:21:45;2.67;;;0.80;;
68792;SDS011;55778;54.346;10.210;2022-07-05T14:24:12;1.85;;;0.70;;
68792;SDS011;55778;54.346;10.210;2022-07-05T14:26:37;2.30;;;0.85;;
68792;SDS011;55778;54.346;10.210;2022-07-05T14:29:04;2.35;;;0.70;;
68792;SDS011;55778;54.346;10.210;2022-07-05T14:31:30;2.67;;;0.80;;
68792;SDS011;55778;54.346;10.210;2022-07-05T14:33:57;5.55;;;0.90;;
68792;SDS011;55778;54.346;10.210;2022-07-05T14:36:22;3.78;;;0.93;;
68792;SDS011;55778;54.346;10.210;2022-07-05T14:38:48;4.07;;;1.08;;
68792;SDS011;55778;54.346;10.210;2022-07-05T14:41:13;0.88;;;0.55;;
68792;SDS011;55778;54.346;10.210;2022-07-05T14:43:38;1.73;;;0.60;;
68792;SDS011;55778;54.346;10.210;2022-07-05T14:46:04;2.45;;;0.70;;
68792;SDS011;55778;54.346;10.210;2022-07-05T14:48:32;3.65;;;0.80;;
68792;SDS011;55778;54.346;10.210;2022-07-05T14:50:58;1.95;;;0.75;;
68792;SDS011;55778;54.346;10.210;2022-07-05T14:53:23;3.20;;;0.80;;
68792;SDS011;55778;54.346;10.210;2022-07-05T14:55:49;3.72;;;0.80;;
68792;SDS011;55778;54.346;10.210;2022-07-05T14:58:14;2.38;;;0.82;;
68792;SDS011;55778;54.346;10.210;2022-07-05T15:00:42;1.48;;;0.60;;
68792;SDS011;55778;54.346;10.210;2022-07-05T15:03:07;3.35;;;0.82;;
68792;SDS011;55778;54.346;10.210;2022-07-05T15:05:34;5.32;;;1.00;;
68792;SDS011;55778;54.346;10.210;2022-07-05T15:08:00;2.47;;;0.80;;
68792;SDS011;55778;54.346;10.210;2022-07-05T15:10:26;2.60;;;0.65;;
68792;SDS011;55778;54.346;10.210;2022-07-05T15:12:51;3.30;;;1.00;;
68792;SDS011;55778;54.346;10.210;2022-07-05T15:15:17;3.95;;;0.82;;
68792;SDS011;55778;54.346;10.210;2022-07-05T15:17:43;3.50;;;0.85;;